createdAt,value
2018-07-23T00:01:49.451Z,77.20
2018-07-23T00:04:17.549Z,77.70
2018-07-23T00:06:45.986Z,77.90
2018-07-23T00:09:14.094Z,78.00
2018-07-23T00:11:42.161Z,78.00
2018-07-23T00:14:10.364Z,78.20
2018-07-23T00:19:06.419Z,78.50
2018-07-23T00:21:34.931Z,79.20
2018-07-23T00:24:02.988Z,79.10
2018-07-23T00:26:31.069Z,79.00
2018-07-23T00:28:59.162Z,78.90
2018-07-23T00:31:27.234Z,79.00
2018-07-23T00:33:55.325Z,79.10
2018-07-23T00:36:23.402Z,79.30
2018-07-23T00:38:51.478Z,79.60
2018-07-23T00:41:19.550Z,79.90
2018-07-23T00:43:47.622Z,80.00
2018-07-23T00:46:15.702Z,79.80
2018-07-23T00:48:43.789Z,80.20
2018-07-23T00:51:12.198Z,80.70
2018-07-23T00:53:40.290Z,80.00
2018-07-23T00:56:08.372Z,80.00
2018-07-23T00:58:36.470Z,80.50
2018-07-23T01:01:04.534Z,80.20
2018-07-23T01:03:32.599Z,80.70
2018-07-23T01:06:01.038Z,80.90
2018-07-23T01:08:29.202Z,80.90
2018-07-23T01:10:57.282Z,81.20
2018-07-23T01:13:25.447Z,82.00
2018-07-23T01:15:53.522Z,81.20
2018-07-23T01:18:21.682Z,81.20
2018-07-23T01:20:50.078Z,81.20
2018-07-23T01:23:18.226Z,81.20
2018-07-23T01:25:46.322Z,81.30
2018-07-23T01:28:14.430Z,81.50
2018-07-23T01:30:42.526Z,81.50
2018-07-23T01:33:10.638Z,81.60
2018-07-23T01:35:39.026Z,81.80
2018-07-23T01:38:07.102Z,81.80
2018-07-23T01:40:35.202Z,82.50
2018-07-23T01:43:03.316Z,82.50
2018-07-23T01:45:31.394Z,83.30
2018-07-23T01:47:59.510Z,83.10
2018-07-23T01:50:27.586Z,83.10
2018-07-23T01:52:55.650Z,83.00
2018-07-23T01:55:23.834Z,83.20
2018-07-23T01:57:52.201Z,83.10
2018-07-23T02:00:20.290Z,83.00
2018-07-23T02:02:48.376Z,83.10
2018-07-23T02:05:16.478Z,83.20
2018-07-23T02:07:44.574Z,83.30
2018-07-23T02:10:12.643Z,83.50
2018-07-23T02:12:40.731Z,83.60
2018-07-23T02:15:08.787Z,83.90
2018-07-23T02:17:36.890Z,84.20
2018-07-23T02:20:05.370Z,84.30
2018-07-23T02:22:33.442Z,85.20
2018-07-23T02:25:01.515Z,85.70
2018-07-23T02:27:29.610Z,85.50
2018-07-23T02:29:57.691Z,86.00
2018-07-23T02:32:25.776Z,85.70
2018-07-23T02:34:53.843Z,85.50
2018-07-23T02:37:21.930Z,85.30
2018-07-23T02:39:50.114Z,85.20
2018-07-23T02:42:18.509Z,85.20
2018-07-23T02:44:46.586Z,85.20
2018-07-23T02:47:14.667Z,85.20
2018-07-23T02:49:42.794Z,85.30
2018-07-23T02:52:10.916Z,85.30
2018-07-23T02:54:38.987Z,85.40
2018-07-23T02:57:07.198Z,85.50
2018-07-23T02:59:35.305Z,85.60
2018-07-23T03:02:03.355Z,85.70
2018-07-23T03:04:31.486Z,85.80
2018-07-23T03:06:59.580Z,86.10
2018-07-23T03:09:27.636Z,87.00
2018-07-23T03:11:55.738Z,86.90
2018-07-23T03:14:23.810Z,87.60
2018-07-23T03:16:51.890Z,87.60
2018-07-23T03:19:20.301Z,87.80
2018-07-23T03:21:48.487Z,87.70
2018-07-23T03:24:16.458Z,87.50
2018-07-23T03:26:44.767Z,87.40
2018-07-23T03:29:12.914Z,87.30
2018-07-23T03:31:41.003Z,87.20
2018-07-23T03:34:09.073Z,87.20
2018-07-23T03:36:37.142Z,87.40
2018-07-23T03:39:07.342Z,87.40
2018-07-23T03:41:35.425Z,87.50
2018-07-23T03:44:03.495Z,87.60
2018-07-23T03:46:31.562Z,87.80
2018-07-23T03:48:59.917Z,88.00
2018-07-23T03:51:27.998Z,88.10
2018-07-23T03:53:56.086Z,88.20
2018-07-23T03:56:24.196Z,89.60
2018-07-23T03:58:52.287Z,89.40
2018-07-23T04:01:20.390Z,89.20
2018-07-23T04:03:48.758Z,89.00
2018-07-23T04:06:16.853Z,88.80
2018-07-23T04:08:44.996Z,88.60
2018-07-23T04:11:13.078Z,88.60
2018-07-23T04:13:41.262Z,88.60
2018-07-23T04:16:09.322Z,88.60
2018-07-23T04:18:37.406Z,88.70
2018-07-23T04:21:05.638Z,88.80
2018-07-23T04:23:33.723Z,88.80
2018-07-23T04:26:02.230Z,88.80
2018-07-23T04:28:30.298Z,88.80
2018-07-23T04:30:58.370Z,88.90
2018-07-23T04:33:26.462Z,89.10
2018-07-23T04:35:54.554Z,89.20
2018-07-23T04:38:22.626Z,89.40
2018-07-23T04:40:50.971Z,90.10
2018-07-23T04:43:19.238Z,90.00
2018-07-23T04:45:47.325Z,90.00
2018-07-23T04:48:15.441Z,90.10
2018-07-23T04:53:11.417Z,90.00
2018-07-23T04:55:39.811Z,89.90
2018-07-23T04:58:07.996Z,89.80
2018-07-23T05:00:36.146Z,89.70
2018-07-23T05:03:04.243Z,89.50
2018-07-23T05:05:32.321Z,89.40
2018-07-23T05:08:00.442Z,89.20
2018-07-23T05:10:28.854Z,89.30
2018-07-23T05:12:56.987Z,89.10
2018-07-23T05:15:25.080Z,89.10
2018-07-23T05:17:53.158Z,89.10
2018-07-23T05:20:21.230Z,89.30
2018-07-23T05:22:49.312Z,89.40
2018-07-23T05:25:17.722Z,89.50
2018-07-23T05:27:46.026Z,89.30
2018-07-23T05:30:14.122Z,89.10
2018-07-23T05:32:42.227Z,89.90
2018-07-23T05:35:10.302Z,89.50
2018-07-23T05:37:38.373Z,89.80
2018-07-23T05:40:06.951Z,89.60
2018-07-23T05:42:35.019Z,89.30
2018-07-23T05:45:03.111Z,89.00
2018-07-23T05:47:31.436Z,88.80
2018-07-23T05:49:59.524Z,88.50
2018-07-23T05:52:27.610Z,88.40
2018-07-23T05:54:55.694Z,88.40
2018-07-23T05:57:23.841Z,88.40
2018-07-23T05:59:51.929Z,88.30
2018-07-23T06:02:20.314Z,88.30
2018-07-23T06:04:48.564Z,88.40
2018-07-23T06:07:16.657Z,88.40
2018-07-23T06:09:45.011Z,88.30
2018-07-23T06:12:13.098Z,88.30
2018-07-23T06:14:41.281Z,88.30
2018-07-23T06:17:09.605Z,88.00
2018-07-23T06:19:37.720Z,88.10
2018-07-23T06:22:05.861Z,87.90
2018-07-23T06:24:34.050Z,87.70
2018-07-23T06:27:02.158Z,88.40
2018-07-23T06:29:30.259Z,88.20
2018-07-23T06:31:58.641Z,87.90
2018-07-23T06:34:26.868Z,87.60
2018-07-23T06:36:54.992Z,87.00
2018-07-23T06:39:23.330Z,86.70
2018-07-23T06:41:51.619Z,86.50
2018-07-23T06:44:20.214Z,86.20
2018-07-23T06:46:48.688Z,85.90
2018-07-23T06:49:16.779Z,85.60
2018-07-23T06:51:44.865Z,85.10
2018-07-23T06:54:13.195Z,84.40
2018-07-23T06:56:41.302Z,84.40
2018-07-23T06:59:09.382Z,84.10
2018-07-23T07:01:38.114Z,83.50
2018-07-23T07:04:06.197Z,82.80
2018-07-23T07:06:34.283Z,82.00
2018-07-23T07:09:02.655Z,81.60
2018-07-23T07:11:30.738Z,80.80
2018-07-23T07:13:59.094Z,80.40
2018-07-23T07:16:27.482Z,78.50
2018-07-23T07:18:55.924Z,78.60
2018-07-23T07:21:24.135Z,78.60
2018-07-23T07:23:52.562Z,78.50
2018-07-23T07:26:21.826Z,77.80
2018-07-23T07:28:49.906Z,77.40
2018-07-23T07:31:18.290Z,76.90
2018-07-23T07:33:46.394Z,76.60
2018-07-23T07:36:14.474Z,76.40
2018-07-23T07:38:43.260Z,76.30
2018-07-23T07:41:11.426Z,76.10
2018-07-23T07:43:39.600Z,75.70
2018-07-23T07:46:08.122Z,75.50
2018-07-23T07:48:36.254Z,74.80
2018-07-23T07:51:04.316Z,74.30
2018-07-23T07:53:32.432Z,73.00
2018-07-23T07:56:00.504Z,73.20
2018-07-23T07:58:29.112Z,72.60
2018-07-23T08:00:57.678Z,72.30
2018-07-23T08:03:26.578Z,72.10
2018-07-23T08:05:54.727Z,71.50
2018-07-23T08:08:23.130Z,71.20
2018-07-23T08:10:51.265Z,71.10
2018-07-23T08:15:47.597Z,70.20
2018-07-23T08:18:15.618Z,69.80
2018-07-23T08:20:43.715Z,69.70
2018-07-23T08:23:12.043Z,69.70
2018-07-23T08:25:40.144Z,69.50
2018-07-23T08:28:08.434Z,69.30
2018-07-23T08:30:36.949Z,68.60
2018-07-23T08:33:05.061Z,68.30
2018-07-23T08:35:33.142Z,68.20
2018-07-23T08:38:01.542Z,67.90
2018-07-23T08:40:29.647Z,67.40
2018-07-23T08:42:57.755Z,67.10
2018-07-23T08:45:26.150Z,67.00
2018-07-23T08:47:54.214Z,66.50
2018-07-23T08:50:22.326Z,65.70
2018-07-23T08:52:50.782Z,65.00
2018-07-23T08:55:18.980Z,64.90
2018-07-23T08:57:47.097Z,65.20
2018-07-23T09:00:15.207Z,64.80
2018-07-23T09:02:43.332Z,64.00
2018-07-23T09:07:39.622Z,62.90
2018-07-23T09:10:07.706Z,63.30
2018-07-23T09:12:35.858Z,62.70
2018-07-23T09:15:04.662Z,62.00
2018-07-23T09:17:32.794Z,62.20
2018-07-23T09:20:01.225Z,61.80
2018-07-23T09:22:29.737Z,61.40
2018-07-23T09:24:57.829Z,61.30
2018-07-23T09:27:25.890Z,61.30
2018-07-23T09:32:23.950Z,61.40
2018-07-23T09:34:52.263Z,60.80
2018-07-23T09:37:20.676Z,60.10
2018-07-23T09:39:48.793Z,59.90
2018-07-23T09:42:16.842Z,59.30
2018-07-23T09:44:45.238Z,59.60
2018-07-23T09:47:13.294Z,60.00
2018-07-23T09:49:41.379Z,59.70
2018-07-23T09:52:09.715Z,59.30
2018-07-23T09:54:37.806Z,58.70
2018-07-23T09:57:06.090Z,58.30
2018-07-23T09:59:34.412Z,57.80
2018-07-23T10:02:02.519Z,57.60
2018-07-23T10:04:30.615Z,57.40
2018-07-23T10:06:58.918Z,57.30
2018-07-23T10:09:26.986Z,57.00
2018-07-23T10:11:55.107Z,56.70
2018-07-23T10:14:23.502Z,56.20
2018-07-23T10:16:51.578Z,55.90
2018-07-23T10:19:19.698Z,55.60
2018-07-23T10:21:48.122Z,55.60
2018-07-23T10:24:16.914Z,56.10
2018-07-23T10:26:46.321Z,55.30
2018-07-23T10:29:14.691Z,55.10
2018-07-23T10:31:42.778Z,54.30
2018-07-23T10:34:10.834Z,53.90
2018-07-23T10:36:38.918Z,54.40
2018-07-23T10:39:08.134Z,54.00
2018-07-23T10:41:36.384Z,53.40
2018-07-23T10:44:04.975Z,52.90
2018-07-23T10:46:33.039Z,53.20
2018-07-23T10:49:01.342Z,53.70
2018-07-23T10:51:29.454Z,53.60
2018-07-23T10:53:57.655Z,53.10
2018-07-23T10:56:25.779Z,52.50
2018-07-23T10:58:54.211Z,52.00
2018-07-23T11:01:22.310Z,51.50
2018-07-23T11:03:50.416Z,51.80
2018-07-23T11:06:18.563Z,51.60
2018-07-23T11:08:46.635Z,51.20
2018-07-23T11:11:14.724Z,50.80
2018-07-23T11:13:43.164Z,51.10
2018-07-23T11:16:11.274Z,51.10
2018-07-23T11:18:39.348Z,50.20
2018-07-23T11:21:07.447Z,49.70
2018-07-23T11:23:35.535Z,49.30
2018-07-23T11:26:04.614Z,49.10
2018-07-23T11:28:33.060Z,49.40
2018-07-23T11:31:01.191Z,49.70
2018-07-23T11:33:29.368Z,49.40
2018-07-23T11:35:57.749Z,48.60
2018-07-23T11:38:25.894Z,48.50
2018-07-23T11:40:53.970Z,48.40
2018-07-23T11:43:22.888Z,48.50
2018-07-23T11:45:50.994Z,48.70
2018-07-23T11:48:19.106Z,48.60
2018-07-23T11:50:47.209Z,48.30
2018-07-23T11:53:15.319Z,48.10
2018-07-23T11:58:11.632Z,48.50
2018-07-23T12:00:39.718Z,47.70
2018-07-23T12:03:07.789Z,47.50
2018-07-23T12:05:37.439Z,47.00
2018-07-23T12:08:05.766Z,46.90
2018-07-23T12:10:33.843Z,47.10
2018-07-23T12:13:03.061Z,47.30
2018-07-23T12:15:31.155Z,47.10
2018-07-23T12:17:59.496Z,47.20
2018-07-23T12:20:28.067Z,47.00
2018-07-23T12:22:56.241Z,47.10
2018-07-23T12:25:24.326Z,46.00
2018-07-23T12:27:52.619Z,46.20
2018-07-23T12:30:20.688Z,45.70
2018-07-23T12:32:48.755Z,45.70
2018-07-23T12:35:17.911Z,45.10
2018-07-23T12:37:46.059Z,45.30
2018-07-23T12:40:14.303Z,44.70
2018-07-23T12:42:42.761Z,44.50
2018-07-23T12:45:10.846Z,44.60
2018-07-23T12:47:38.923Z,44.10
2018-07-23T12:50:07.003Z,44.30
2018-07-23T12:52:35.135Z,44.00
2018-07-23T12:55:03.146Z,44.20
2018-07-23T12:57:31.232Z,44.10
2018-07-23T13:00:01.348Z,43.90
2018-07-23T13:02:30.968Z,44.30
2018-07-23T13:04:59.396Z,44.40
2018-07-23T13:07:27.482Z,44.20
2018-07-23T13:09:56.595Z,44.00
2018-07-23T13:12:24.902Z,43.70
2018-07-23T13:14:53.777Z,43.60
2018-07-23T13:17:21.839Z,43.30
2018-07-23T13:19:50.184Z,43.20
2018-07-23T13:22:18.262Z,42.80
2018-07-23T13:24:46.368Z,42.60
2018-07-23T13:27:14.711Z,42.50
2018-07-23T13:29:42.805Z,42.90
2018-07-23T13:32:11.009Z,42.10
2018-07-23T13:34:39.333Z,42.90
2018-07-23T13:37:07.418Z,43.20
2018-07-23T13:39:35.483Z,43.70
2018-07-23T13:42:03.798Z,44.10
2018-07-23T13:44:31.917Z,44.30
2018-07-23T13:47:00.000Z,44.10
2018-07-23T13:49:28.369Z,43.60
2018-07-23T13:51:56.452Z,43.40
2018-07-23T13:54:24.628Z,43.10
2018-07-23T13:56:54.400Z,42.90
2018-07-23T13:59:22.454Z,42.40
2018-07-23T14:01:50.541Z,42.00
2018-07-23T14:04:18.925Z,41.60
2018-07-23T14:06:46.998Z,41.20
2018-07-23T14:09:15.754Z,42.00
2018-07-23T14:11:44.504Z,41.70
2018-07-23T14:14:12.809Z,41.20
2018-07-23T14:16:40.951Z,41.10
2018-07-23T14:19:09.340Z,41.10
2018-07-23T14:21:37.653Z,41.10
2018-07-23T14:24:05.973Z,40.50
2018-07-23T14:26:34.366Z,40.30
2018-07-23T14:29:03.027Z,39.90
2018-07-23T14:31:31.086Z,39.90
2018-07-23T14:34:00.017Z,39.80
2018-07-23T14:36:28.249Z,39.60
2018-07-23T14:41:24.732Z,39.30
2018-07-23T14:43:52.862Z,39.10
2018-07-23T14:46:20.954Z,38.50
2018-07-23T14:48:49.877Z,38.50
2018-07-23T14:51:18.557Z,38.40
2018-07-23T14:53:46.914Z,37.50
2018-07-23T14:56:15.578Z,36.90
2018-07-23T14:58:43.838Z,36.70
2018-07-23T15:01:11.903Z,36.70
2018-07-23T15:03:40.671Z,36.20
2018-07-23T15:06:09.981Z,36.00
2018-07-23T15:08:38.900Z,36.40
2018-07-23T15:11:07.338Z,36.30
2018-07-23T15:13:36.862Z,36.80
2018-07-23T15:16:05.088Z,36.50
2018-07-23T15:18:33.515Z,36.60
2018-07-23T15:21:02.990Z,36.50
2018-07-23T15:23:31.219Z,36.00
2018-07-23T15:25:59.798Z,35.80
2018-07-23T15:28:27.936Z,35.10
2018-07-23T15:30:56.097Z,35.10
2018-07-23T15:33:24.698Z,35.40
2018-07-23T15:35:53.127Z,35.50
2018-07-23T15:40:49.392Z,37.20
2018-07-23T15:43:17.454Z,38.80
2018-07-23T15:45:46.836Z,39.20
2018-07-23T15:48:14.934Z,38.00
2018-07-23T15:50:43.054Z,37.20
2018-07-23T15:53:11.236Z,36.40
2018-07-23T15:55:39.535Z,36.90
2018-07-23T15:58:07.678Z,36.00
2018-07-23T16:00:35.760Z,35.50
2018-07-23T16:03:04.164Z,34.30
2018-07-23T16:05:32.269Z,33.60
2018-07-23T16:08:01.081Z,32.90
2018-07-23T16:10:29.450Z,33.10
2018-07-23T16:12:57.527Z,32.30
2018-07-23T16:15:25.614Z,31.80
2018-07-23T16:17:53.983Z,31.70
2018-07-23T16:20:22.144Z,30.70
2018-07-23T16:22:50.289Z,30.00
2018-07-23T16:25:18.812Z,29.70
2018-07-23T16:27:46.884Z,29.70
2018-07-23T16:30:14.962Z,29.40
2018-07-23T16:32:43.333Z,29.20
2018-07-23T16:35:12.383Z,28.90
2018-07-23T16:37:40.534Z,28.30
2018-07-23T16:40:09.394Z,28.40
2018-07-23T16:42:37.493Z,28.40
2018-07-23T16:45:05.594Z,28.00
2018-07-23T16:47:33.945Z,27.80
2018-07-23T16:50:02.130Z,27.90
2018-07-23T16:52:30.686Z,28.70
2018-07-23T16:54:59.146Z,29.30
2018-07-23T16:57:27.341Z,30.20
2018-07-23T16:59:55.510Z,31.50
2018-07-23T17:02:24.071Z,32.50
2018-07-23T17:04:52.157Z,33.60
2018-07-23T17:07:20.587Z,34.50
2018-07-23T17:09:49.013Z,35.00
2018-07-23T17:12:17.181Z,36.40
2018-07-23T17:14:45.281Z,36.70
2018-07-23T17:17:14.490Z,37.10
2018-07-23T17:19:42.533Z,37.40
2018-07-23T17:22:11.113Z,37.80
2018-07-23T17:24:39.386Z,38.20
2018-07-23T17:27:07.498Z,38.50
2018-07-23T17:29:36.271Z,39.30
2018-07-23T17:32:04.410Z,40.30
2018-07-23T17:34:32.506Z,40.80
2018-07-23T17:37:00.611Z,41.00
2018-07-23T17:39:29.090Z,41.30
2018-07-23T17:41:57.163Z,42.30
2018-07-23T17:44:25.293Z,42.60
2018-07-23T17:46:53.683Z,42.70
2018-07-23T17:49:21.741Z,42.50
2018-07-23T17:51:49.835Z,42.50
2018-07-23T17:54:18.109Z,42.70
2018-07-23T17:56:46.213Z,42.80
2018-07-23T17:59:14.297Z,43.00
2018-07-23T18:01:42.729Z,43.40
2018-07-23T18:04:10.822Z,43.40
2018-07-23T18:06:39.916Z,43.80
2018-07-23T18:09:09.841Z,43.80
2018-07-23T18:11:39.278Z,43.60
2018-07-23T18:14:08.014Z,44.00
2018-07-23T18:16:36.976Z,44.30
2018-07-23T18:19:05.258Z,44.40
2018-07-23T18:21:33.384Z,44.40
2018-07-23T18:24:01.483Z,44.50
2018-07-23T18:26:29.554Z,44.60
2018-07-23T18:28:58.336Z,44.60
2018-07-23T18:31:26.954Z,44.70
2018-07-23T18:33:55.074Z,44.90
2018-07-23T18:36:23.180Z,45.30
2018-07-23T18:38:51.584Z,45.40
2018-07-23T18:41:19.744Z,45.70
2018-07-23T18:43:48.101Z,45.80
2018-07-23T18:46:16.274Z,46.20
2018-07-23T18:49:24.329Z,46.30
2018-07-23T18:51:53.568Z,46.50
2018-07-23T18:54:23.199Z,46.40
2018-07-23T18:56:53.141Z,46.80
2018-07-23T18:59:21.975Z,47.10
2018-07-23T19:01:51.145Z,47.30
2018-07-23T19:04:19.616Z,47.60
2018-07-23T19:06:48.293Z,48.00
2018-07-23T19:09:17.853Z,48.50
2018-07-23T19:11:47.110Z,48.90
2018-07-23T19:14:15.882Z,49.30
2018-07-23T19:16:44.411Z,49.70
2018-07-23T19:19:12.561Z,50.10
2018-07-23T19:21:40.917Z,50.40
2018-07-23T19:24:08.993Z,51.00
2018-07-23T19:26:37.136Z,51.40
2018-07-23T19:29:05.578Z,51.80
2018-07-23T19:31:33.730Z,52.10
2018-07-23T19:34:02.763Z,52.20
2018-07-23T19:36:31.293Z,52.60
2018-07-23T19:38:59.831Z,52.80
2018-07-23T19:41:28.478Z,53.20
2018-07-23T19:43:56.658Z,54.40
2018-07-23T19:46:24.738Z,53.90
2018-07-23T19:48:52.831Z,54.20
2018-07-23T19:51:21.161Z,54.20
2018-07-23T19:53:49.375Z,54.40
2018-07-23T19:56:17.428Z,54.60
2018-07-23T19:58:45.802Z,54.90
2018-07-23T20:01:13.854Z,55.20
2018-07-23T20:03:42.010Z,55.50
2018-07-23T20:06:10.425Z,55.70
2018-07-23T20:08:38.505Z,56.00
2018-07-23T20:11:06.945Z,56.30
2018-07-23T20:13:35.341Z,56.70
2018-07-23T20:16:03.474Z,56.90
2018-07-23T20:23:27.581Z,58.70
2018-07-23T20:28:23.931Z,58.80
2018-07-23T20:30:52.010Z,59.30
2018-07-23T20:33:20.159Z,59.80
2018-07-23T20:35:48.502Z,60.20
2018-07-23T20:38:16.601Z,60.80
2018-07-23T20:40:44.658Z,62.00
2018-07-23T20:43:13.147Z,61.70
2018-07-23T20:45:41.249Z,62.00
2018-07-23T20:48:09.290Z,63.00
2018-07-23T20:50:37.764Z,63.30
2018-07-23T20:53:05.856Z,64.10
2018-07-23T20:55:33.950Z,64.30
2018-07-23T20:58:02.278Z,64.50
2018-07-23T21:00:30.529Z,64.80
2018-07-23T21:02:58.564Z,65.20
2018-07-23T21:05:27.011Z,65.30
2018-07-23T21:07:55.090Z,65.20
2018-07-23T21:10:23.282Z,65.30
2018-07-23T21:12:51.737Z,65.40
2018-07-23T21:15:19.842Z,65.40
2018-07-23T21:17:47.946Z,65.60
2018-07-23T21:20:16.056Z,65.80
2018-07-23T21:22:44.210Z,65.90
2018-07-23T21:25:12.329Z,66.10
2018-07-23T21:27:40.414Z,66.80
2018-07-23T21:30:08.642Z,66.60
2018-07-23T21:32:36.715Z,66.70
2018-07-23T21:35:05.375Z,66.70
2018-07-23T21:37:33.438Z,66.70
2018-07-23T21:40:01.572Z,66.90
2018-07-23T21:42:29.929Z,67.10
2018-07-23T21:44:58.103Z,67.50
2018-07-23T21:47:26.177Z,67.80
2018-07-23T21:49:54.353Z,68.00
2018-07-23T21:52:22.417Z,68.30
2018-07-23T21:54:50.479Z,68.50
2018-07-23T21:57:18.833Z,69.60
2018-07-23T21:59:46.893Z,69.90
2018-07-23T22:04:42.827Z,70.80
2018-07-23T22:07:10.936Z,70.80
2018-07-23T22:09:39.505Z,70.80
2018-07-23T22:12:07.641Z,70.80
2018-07-23T22:17:03.899Z,70.80
2018-07-23T22:19:33.029Z,70.90
2018-07-23T22:22:01.222Z,71.00
2018-07-23T22:24:29.306Z,71.40
2018-07-23T22:26:57.366Z,71.90
2018-07-23T22:29:25.416Z,72.20
2018-07-23T22:31:53.497Z,73.00
2018-07-23T22:34:21.853Z,72.80
2018-07-23T22:36:49.929Z,74.20
2018-07-23T22:39:18.029Z,73.40
2018-07-23T22:41:46.357Z,73.40
2018-07-23T22:44:14.399Z,73.60
2018-07-23T22:49:10.414Z,74.00
2018-07-23T22:51:39.614Z,73.90
2018-07-23T22:54:07.738Z,73.80
2018-07-23T22:56:36.082Z,73.80
2018-07-23T22:59:04.106Z,73.90
2018-07-23T23:01:32.180Z,74.00
2018-07-23T23:04:00.250Z,74.30
2018-07-23T23:06:28.325Z,75.20
2018-07-23T23:08:56.421Z,75.20
2018-07-23T23:11:24.782Z,75.80
2018-07-23T23:13:52.898Z,75.70
2018-07-23T23:16:20.949Z,75.50
2018-07-23T23:18:49.308Z,75.60
2018-07-23T23:21:17.383Z,75.60
2018-07-23T23:23:45.474Z,75.80
2018-07-23T23:26:13.607Z,76.00
2018-07-23T23:28:41.696Z,76.10
2018-07-23T23:31:09.750Z,76.20
2018-07-23T23:33:38.143Z,76.20
2018-07-23T23:36:06.295Z,76.40
2018-07-23T23:38:34.383Z,76.60
2018-07-23T23:41:02.470Z,77.70
2018-07-23T23:43:30.506Z,77.90
2018-07-23T23:45:58.577Z,78.50
2018-07-23T23:48:26.638Z,78.60
2018-07-23T23:50:54.717Z,79.00
2018-07-23T23:53:22.766Z,79.50
2018-07-23T23:55:50.830Z,79.90
2018-07-23T23:58:18.925Z,80.00
